EDDS Airport Information

Runway Information
Runway 07 Length 10974 ft width 148 ft
Elevation 1267 ft Threshold 984 ft Heading 74
Runway 25 Length 10974 ft Width 148 ft
Elevation 1181 ft Threshold 0 ft Heading 254
Airport Frequencies
Type ATIS Name ATIS Frequency 126.125 MHZ
Type CLD Name CLNC DEL Frequency 121.9 MHZ
Type DIR Name DIR Frequency 119.85 MHZ
Type GND Name GND Frequency 118.6 MHZ
Type INFO Name LANGEN INF Frequency 128.95 MHZ
Type MISC Name DEICING Frequency 136.825 MHZ
Type PTD Name BASE OPS P Frequency 31.8 MHZ
Type RDR Name LANGEN RAD Frequency 119.2 MHZ
Type RMP Name APRON Frequency 121.7 MHZ
Type TWR Name TWR Frequency 118.8 MHZ
Airport Navaids
Type VOR-DME Name Luburg Frequency 109200 KHZ
Type NDB Name Stuttgart Frequency 306 KHZ
Type DME Name Stuttgart Frequency 115450 KHZ
Type NDB Name Stuttgart Frequency 384 KHZ
Airport Weather Information & NOTAM
ADDS - METARS form results

(1244 UTC 23 February 2019)
Data provider http://aviationweather.gov/metar/data/
 
METAR text: EDDS 231220Z 08011KT CAVOK 08/M09 Q1037 NOSIG
Conditions at: EDDS (STUTTGART/ECHTER, DE) observed 1220 UTC 23 February 2019
Temperature: 8.0°C (46°F)
Dewpoint: -9.0°C (16°F) [RH = 29%]
Pressure (altimeter): 30.62 inches Hg (1037.0 mb)
Winds: from the E (80 degrees) at 13 MPH (11 knots; 5.7 m/s)
Visibility: 6 or more miles (10+ km)
Ceiling: ceiling and visibility are OK
Clouds: unknown
Weather: no significant weather observed at this time

METAR text: EDDS 231150Z 08013KT CAVOK 07/M09 Q1037 NOSIG
Conditions at: EDDS (STUTTGART/ECHTER, DE) observed 1150 UTC 23 February 2019
Temperature: 7.0°C (45°F)
Dewpoint: -9.0°C (16°F) [RH = 31%]
Pressure (altimeter): 30.62 inches Hg (1037.0 mb)
Winds: from the E (80 degrees) at 15 MPH (13 knots; 6.7 m/s)
Visibility: 6 or more miles (10+ km)
Ceiling: ceiling and visibility are OK
Clouds: unknown
Weather: no significant weather observed at this time

Forecast for: EDDS (STUTTGART/ECHTER, DE)
Text: TAF EDDS 231100Z 2312/2412 07010KT CAVOK
Forecast period: 1200 to 1900 UTC 23 February 2019
Forecast type: FROM: standard forecast or significant change
Winds: from the ENE (70 degrees) at 12 MPH (10 knots; 5.1 m/s)
Visibility: 6 or more miles 10+ km)
Ceiling: unknown
Clouds: missing
Weather: NSW  (no significant weather)
Text: BECMG 2319/2322 06005KT
Forecast period: 1900 UTC 23 February 2019 to 1200 UTC 24 February 2019
Forecast type: BECOMING: Conditions expected to become as follows by 2200 UTC 23 February 2019
Winds: from the ENE (60 degrees) at 6 MPH (5 knots; 2.6 m/s)
Visibility: 6 or more miles 10+ km)
Ceiling: unknown
Clouds: missing
Weather: NSW  (no significant weather)